createdAt,value
2022-09-15T00:02:10.303Z,50.80
2022-09-15T00:04:36.901Z,48.37
2022-09-15T00:07:03.308Z,56.60
2022-09-15T00:09:29.730Z,47.57
2022-09-15T00:11:56.082Z,51.47
2022-09-15T00:14:22.550Z,52.90
2022-09-15T00:16:49.156Z,50.53
2022-09-15T00:19:15.598Z,49.70
2022-09-15T00:21:42.381Z,51.93
2022-09-15T00:24:09.890Z,50.77
2022-09-15T00:26:37.343Z,55.73
2022-09-15T00:29:04.369Z,59.10
2022-09-15T00:31:32.138Z,47.47
2022-09-15T00:34:04.015Z,50.77
2022-09-15T00:36:30.663Z,56.57
2022-09-15T00:38:57.553Z,56.83
2022-09-15T00:41:24.774Z,53.97
2022-09-15T00:44:00.824Z,56.53
2022-09-15T00:46:40.847Z,57.77
2022-09-15T00:49:13.208Z,62.03
2022-09-15T00:51:51.641Z,58.50
2022-09-15T00:54:29.056Z,60.73
2022-09-15T00:56:58.310Z,55.27
2022-09-15T00:59:27.950Z,55.20
2022-09-15T01:02:26.469Z,57.83
2022-09-15T01:04:58.117Z,61.93
2022-09-15T01:07:32.172Z,49.07
2022-09-15T01:10:30.792Z,52.87
2022-09-15T01:13:01.088Z,58.17
2022-09-15T01:15:37.578Z,54.30
2022-09-15T01:18:39.896Z,55.50
2022-09-15T01:21:25.017Z,52.07
2022-09-15T01:24:29.073Z,56.70
2022-09-15T01:27:30.944Z,50.10
2022-09-15T01:30:12.157Z,56.70
2022-09-15T01:33:06.131Z,49.40
2022-09-15T01:35:48.117Z,48.10
2022-09-15T01:38:37.237Z,54.70
2022-09-15T01:41:17.029Z,49.30
2022-09-15T01:44:07.893Z,60.27
2022-09-15T01:46:42.805Z,54.07
2022-09-15T01:49:14.699Z,55.30
2022-09-15T01:51:43.557Z,54.90
2022-09-15T01:54:11.097Z,44.93
2022-09-15T01:56:38.943Z,49.07
2022-09-15T01:59:06.904Z,52.60
2022-09-15T02:01:51.680Z,48.80
2022-09-15T02:04:48.273Z,53.13
2022-09-15T02:07:44.954Z,51.23
2022-09-15T02:10:20.222Z,46.67
2022-09-15T02:12:58.131Z,49.03
2022-09-15T02:15:48.341Z,50.80
2022-09-15T02:18:20.531Z,53.53
2022-09-15T02:20:53.453Z,45.63
2022-09-15T02:23:19.732Z,43.30
2022-09-15T02:25:52.044Z,46.37
2022-09-15T02:28:23.941Z,43.37
2022-09-15T02:30:53.241Z,46.57
2022-09-15T02:33:24.119Z,41.90
2022-09-15T02:35:52.663Z,39.73
2022-09-15T02:38:19.112Z,41.13
2022-09-15T02:40:47.858Z,41.13
2022-09-15T02:43:16.982Z,43.87
2022-09-15T02:45:43.949Z,42.83
2022-09-15T02:48:10.334Z,41.70
2022-09-15T02:50:37.515Z,39.77
2022-09-15T02:53:04.301Z,48.07
2022-09-15T02:55:30.724Z,46.03
2022-09-15T02:57:58.237Z,47.77
2022-09-15T03:00:25.459Z,47.37
2022-09-15T03:02:54.331Z,47.93
2022-09-15T03:05:26.625Z,52.90
2022-09-15T03:07:53.753Z,50.10
2022-09-15T03:10:21.008Z,51.13
2022-09-15T03:12:50.832Z,48.37
2022-09-15T03:15:20.221Z,55.57
2022-09-15T03:17:48.013Z,52.70
2022-09-15T03:20:23.396Z,57.27
2022-09-15T03:22:50.380Z,53.30
2022-09-15T03:25:18.972Z,59.13
2022-09-15T03:27:45.476Z,62.23
2022-09-15T03:30:13.169Z,52.97
2022-09-15T03:32:40.161Z,58.93
2022-09-15T03:35:07.851Z,66.50
2022-09-15T03:37:34.911Z,61.33
2022-09-15T03:40:01.505Z,63.63
2022-09-15T03:42:27.971Z,64.67
2022-09-15T03:44:54.350Z,61.03
2022-09-15T03:47:20.770Z,64.13
2022-09-15T03:49:47.554Z,61.63
2022-09-15T03:52:13.923Z,57.87
2022-09-15T03:54:40.306Z,55.37
2022-09-15T03:57:06.709Z,55.87
2022-09-15T03:59:33.117Z,67.60
2022-09-15T04:01:59.575Z,61.37
2022-09-15T04:04:26.084Z,64.23
2022-09-15T04:06:53.181Z,63.10
2022-09-15T04:09:20.449Z,63.63
2022-09-15T04:11:47.592Z,64.90
2022-09-15T04:14:13.957Z,59.40
2022-09-15T04:16:40.407Z,59.27
2022-09-15T04:19:07.459Z,62.73
2022-09-15T04:21:33.971Z,62.87
2022-09-15T04:24:00.976Z,56.37
2022-09-15T04:26:31.642Z,54.07
2022-09-15T04:29:03.175Z,55.40
2022-09-15T04:31:31.573Z,52.93
2022-09-15T04:33:58.033Z,60.30
2022-09-15T04:36:27.491Z,59.87
2022-09-15T04:38:55.333Z,57.63
2022-09-15T04:41:23.636Z,59.73
2022-09-15T04:43:50.079Z,49.90
2022-09-15T04:46:18.173Z,53.37
2022-09-15T04:48:46.129Z,49.90
2022-09-15T04:51:16.130Z,55.13
2022-09-15T04:53:43.229Z,54.00
2022-09-15T04:56:12.732Z,53.07
2022-09-15T04:58:41.170Z,49.20
2022-09-15T05:01:13.550Z,52.97
2022-09-15T05:03:40.484Z,46.57
2022-09-15T05:06:08.726Z,50.67
2022-09-15T05:08:35.426Z,55.93
2022-09-15T05:11:03.911Z,52.60
2022-09-15T05:13:30.383Z,45.63
2022-09-15T05:15:56.836Z,50.13
2022-09-15T05:18:23.369Z,50.30
2022-09-15T05:20:49.749Z,52.33
2022-09-15T05:23:16.715Z,50.10
2022-09-15T05:25:43.082Z,47.10
2022-09-15T05:28:09.454Z,44.50
2022-09-15T05:30:43.627Z,57.23
2022-09-15T05:33:11.025Z,51.83
2022-09-15T05:35:37.392Z,48.13
2022-09-15T05:38:04.065Z,50.87
2022-09-15T05:40:32.508Z,44.63
2022-09-15T05:42:58.973Z,42.67
2022-09-15T05:45:25.364Z,45.27
2022-09-15T05:47:51.737Z,43.33
2022-09-15T05:50:18.219Z,48.13
2022-09-15T05:52:44.610Z,44.80
2022-09-15T05:55:11.317Z,48.77
2022-09-15T05:57:37.657Z,40.83
2022-09-15T06:00:04.672Z,38.10
2022-09-15T06:02:31.253Z,37.27
2022-09-15T06:04:58.311Z,41.40
2022-09-15T06:07:24.717Z,38.13
2022-09-15T06:09:51.066Z,42.93
2022-09-15T06:12:18.320Z,37.60
2022-09-15T06:14:45.866Z,36.17
2022-09-15T06:17:12.267Z,38.53
2022-09-15T06:19:38.659Z,40.23
2022-09-15T06:22:05.017Z,37.63
2022-09-15T06:24:31.410Z,37.93
2022-09-15T06:26:57.849Z,37.97
2022-09-15T06:29:25.122Z,38.10
2022-09-15T06:31:51.526Z,36.50
2022-09-15T06:34:18.009Z,39.83
2022-09-15T06:36:45.097Z,33.97
2022-09-15T06:39:11.451Z,35.20
2022-09-15T06:42:00.817Z,31.90
2022-09-15T06:44:24.197Z,33.70
2022-09-15T06:46:50.819Z,36.57
2022-09-15T06:49:17.400Z,41.30
2022-09-15T06:51:43.748Z,37.07
2022-09-15T06:54:10.518Z,32.57
2022-09-15T06:56:38.284Z,34.50
2022-09-15T06:59:05.021Z,39.93
2022-09-15T07:01:32.294Z,36.87
2022-09-15T07:04:01.002Z,39.80
2022-09-15T07:06:29.370Z,39.23
2022-09-15T07:08:56.630Z,38.70
2022-09-15T07:11:23.008Z,39.50
2022-09-15T07:13:49.434Z,37.37
2022-09-15T07:16:16.645Z,35.57
2022-09-15T07:18:43.720Z,37.13
2022-09-15T07:21:20.844Z,35.20
2022-09-15T07:23:48.144Z,33.63
2022-09-15T07:26:18.485Z,31.90
2022-09-15T07:28:48.013Z,36.17
2022-09-15T07:31:17.670Z,35.77
2022-09-15T07:33:44.549Z,39.77
2022-09-15T07:36:11.635Z,31.90
2022-09-15T07:38:47.863Z,38.50
2022-09-15T07:41:16.838Z,35.17
2022-09-15T07:43:47.753Z,29.03
2022-09-15T07:46:15.160Z,33.13
2022-09-15T07:48:44.848Z,32.63
2022-09-15T07:51:11.349Z,30.37
2022-09-15T07:53:37.780Z,35.63
2022-09-15T07:56:04.305Z,36.90
2022-09-15T07:58:33.205Z,34.30
2022-09-15T08:01:11.000Z,39.03
2022-09-15T08:03:42.689Z,31.27
2022-09-15T08:06:09.981Z,31.17
2022-09-15T08:08:38.817Z,31.27
2022-09-15T08:11:09.403Z,33.27
2022-09-15T08:13:36.333Z,35.77
2022-09-15T08:16:06.877Z,27.80
2022-09-15T08:18:33.574Z,32.13
2022-09-15T08:20:59.994Z,33.40
2022-09-15T08:23:26.576Z,28.37
2022-09-15T08:25:52.990Z,31.13
2022-09-15T08:28:19.439Z,29.80
2022-09-15T08:30:45.814Z,32.77
2022-09-15T08:33:12.193Z,36.50
2022-09-15T08:35:38.515Z,31.40
2022-09-15T08:38:04.910Z,29.63
2022-09-15T08:40:35.994Z,35.90
2022-09-15T08:43:12.769Z,29.97
2022-09-15T08:45:55.962Z,31.03
2022-09-15T08:48:29.813Z,29.93
2022-09-15T08:51:01.845Z,31.13
2022-09-15T08:53:36.598Z,31.20
2022-09-15T08:56:11.192Z,31.37
2022-09-15T08:58:38.447Z,32.97
2022-09-15T09:01:10.885Z,32.10
2022-09-15T09:03:53.674Z,28.33
2022-09-15T09:06:38.481Z,28.87
2022-09-15T09:09:13.564Z,33.60
2022-09-15T09:12:17.458Z,31.80
2022-09-15T09:15:04.312Z,30.30
2022-09-15T09:17:39.769Z,32.30
2022-09-15T09:20:33.896Z,31.67
2022-09-15T09:23:03.944Z,29.43
2022-09-15T09:25:31.402Z,29.60
2022-09-15T09:27:58.527Z,27.53
2022-09-15T09:30:27.649Z,25.73
2022-09-15T09:33:02.876Z,24.77
2022-09-15T09:35:40.202Z,24.73
2022-09-15T09:38:09.621Z,21.43
2022-09-15T09:40:37.069Z,21.43
2022-09-15T09:43:03.540Z,20.17
2022-09-15T09:45:29.911Z,20.50
2022-09-15T09:48:02.164Z,21.67
2022-09-15T09:50:34.736Z,21.60
2022-09-15T09:53:31.122Z,21.73
2022-09-15T09:56:22.849Z,17.33
2022-09-15T09:58:49.443Z,21.20
2022-09-15T10:01:18.624Z,18.77
2022-09-15T10:03:45.271Z,17.30
2022-09-15T10:06:18.552Z,17.20
2022-09-15T10:09:05.710Z,16.73
2022-09-15T10:11:54.170Z,19.10
2022-09-15T10:14:22.306Z,19.07
2022-09-15T10:17:02.661Z,19.80
2022-09-15T10:19:32.504Z,17.77
2022-09-15T10:22:00.981Z,18.23
2022-09-15T10:24:27.267Z,18.03
2022-09-15T10:27:06.845Z,19.23
2022-09-15T10:29:42.287Z,16.07
2022-09-15T10:32:25.030Z,16.33
2022-09-15T10:35:00.358Z,17.30
2022-09-15T10:37:31.464Z,17.20
2022-09-15T10:40:10.868Z,13.90
2022-09-15T10:42:49.556Z,14.77
2022-09-15T10:45:32.469Z,13.57
2022-09-15T10:48:06.986Z,16.87
2022-09-15T10:50:49.126Z,13.67
2022-09-15T10:53:46.548Z,12.97
2022-09-15T10:56:18.986Z,14.70
2022-09-15T10:59:13.004Z,12.03
2022-09-15T11:02:01.453Z,10.10
2022-09-15T11:04:36.257Z,6.60
2022-09-15T11:07:11.470Z,9.63
2022-09-15T11:10:22.493Z,10.00
2022-09-15T11:13:03.916Z,10.40
2022-09-15T11:15:39.230Z,5.97
2022-09-15T11:18:20.136Z,5.43
2022-09-15T11:21:17.064Z,6.17
2022-09-15T11:24:05.515Z,5.30
2022-09-15T11:26:56.430Z,4.50
2022-09-15T11:29:31.965Z,6.03
2022-09-15T11:32:05.371Z,5.60
2022-09-15T11:34:43.701Z,5.83
2022-09-15T11:37:17.115Z,3.97
2022-09-15T11:39:57.393Z,5.60
2022-09-15T11:42:30.621Z,5.30
2022-09-15T11:44:59.381Z,8.40
2022-09-15T11:47:36.362Z,6.00
2022-09-15T11:50:20.336Z,3.90
2022-09-15T11:52:58.761Z,5.37
2022-09-15T11:55:31.607Z,5.47
2022-09-15T11:58:21.979Z,9.30
2022-09-15T12:00:55.820Z,3.70
2022-09-15T12:03:41.968Z,6.30
2022-09-15T12:06:13.416Z,5.13
2022-09-15T12:08:46.963Z,7.67
2022-09-15T12:11:20.393Z,4.03
2022-09-15T12:13:47.006Z,7.70
2022-09-15T12:16:14.844Z,4.97
2022-09-15T12:19:19.524Z,6.93
2022-09-15T12:21:53.285Z,4.00
2022-09-15T12:24:39.989Z,4.77
2022-09-15T12:27:18.529Z,4.53
2022-09-15T12:29:56.840Z,7.20
2022-09-15T12:32:28.713Z,4.67
2022-09-15T12:34:56.452Z,4.07
2022-09-15T12:37:24.327Z,3.83
2022-09-15T12:39:51.444Z,6.03
2022-09-15T12:42:23.804Z,4.37
2022-09-15T12:44:52.181Z,4.00
2022-09-15T12:47:39.198Z,3.57
2022-09-15T12:50:23.504Z,4.70
2022-09-15T12:52:54.555Z,4.43
2022-09-15T12:55:28.532Z,3.83
2022-09-15T12:58:00.075Z,6.33
2022-09-15T13:00:49.900Z,3.70
2022-09-15T13:06:18.706Z,4.97
2022-09-15T13:08:52.511Z,3.23
2022-09-15T13:11:28.411Z,6.60
2022-09-15T13:14:03.815Z,3.13
2022-09-15T13:16:33.674Z,3.90
2022-09-15T13:19:12.425Z,5.60
2022-09-15T13:21:42.131Z,4.50
2022-09-15T13:24:19.115Z,4.10
2022-09-15T13:26:51.884Z,3.70
2022-09-15T13:29:19.268Z,3.67
2022-09-15T13:32:13.399Z,3.03
2022-09-15T13:35:15.330Z,3.67
2022-09-15T13:40:46.129Z,4.33
2022-09-15T13:43:28.451Z,4.73
2022-09-15T13:46:14.668Z,3.20
2022-09-15T13:49:26.227Z,5.13
2022-09-15T13:52:15.718Z,4.10
2022-09-15T13:55:07.220Z,4.23
2022-09-15T14:00:29.601Z,4.00
2022-09-15T14:03:11.418Z,3.37
2022-09-15T14:05:38.376Z,3.93
2022-09-15T14:08:09.869Z,3.87
2022-09-15T14:10:45.545Z,5.73
2022-09-15T14:13:16.175Z,7.20
2022-09-15T14:15:56.125Z,3.10
2022-09-15T14:18:22.474Z,3.73
2022-09-15T14:21:04.649Z,6.17
2022-09-15T14:23:32.627Z,3.33
2022-09-15T14:26:01.281Z,7.23
2022-09-15T14:28:33.867Z,3.40
2022-09-15T14:31:02.314Z,4.57
2022-09-15T14:33:37.839Z,4.50
2022-09-15T14:36:22.514Z,3.83
2022-09-15T14:39:13.612Z,5.17
2022-09-15T14:41:42.780Z,3.90
2022-09-15T14:47:27.861Z,4.83
2022-09-15T14:50:14.236Z,4.63
2022-09-15T14:52:49.956Z,8.63
2022-09-15T14:55:28.882Z,6.83
2022-09-15T14:58:03.119Z,6.63
2022-09-15T15:00:37.454Z,3.70
2022-09-15T15:03:45.517Z,3.83
2022-09-15T15:06:35.112Z,8.70
2022-09-15T15:09:17.989Z,3.60
2022-09-15T15:11:45.023Z,9.37
2022-09-15T15:14:13.410Z,7.03
2022-09-15T15:16:52.197Z,5.93
2022-09-15T15:19:39.456Z,5.57
2022-09-15T15:22:17.131Z,3.33
2022-09-15T15:24:45.960Z,3.57
2022-09-15T15:27:34.274Z,4.33
2022-09-15T15:30:29.459Z,3.03
2022-09-15T15:33:05.449Z,5.90
2022-09-15T15:35:33.625Z,6.13
2022-09-15T15:38:25.249Z,2.83
2022-09-15T15:41:00.675Z,5.27
2022-09-15T15:43:28.746Z,6.03
2022-09-15T15:46:01.316Z,6.77
2022-09-15T15:48:35.206Z,5.40
2022-09-15T15:51:04.675Z,3.50
2022-09-15T15:53:31.105Z,3.87
2022-09-15T15:55:59.638Z,3.73
2022-09-15T15:58:26.342Z,5.00
2022-09-15T16:00:57.137Z,5.47
2022-09-15T16:03:24.853Z,4.37
2022-09-15T16:05:54.629Z,3.73
2022-09-15T16:08:32.394Z,7.77
2022-09-15T16:11:01.357Z,5.27
2022-09-15T16:13:28.483Z,4.67
2022-09-15T16:16:00.063Z,8.73
2022-09-15T16:18:27.590Z,6.53
2022-09-15T16:20:54.351Z,4.07
2022-09-15T16:23:22.773Z,11.63
2022-09-15T16:25:54.905Z,3.53
2022-09-15T16:28:21.311Z,4.27
2022-09-15T16:30:47.997Z,3.37
2022-09-15T16:33:16.361Z,6.20
2022-09-15T16:35:53.009Z,4.20
2022-09-15T16:38:20.225Z,3.60
2022-09-15T16:40:47.849Z,3.30
2022-09-15T16:43:17.042Z,2.07
2022-09-15T16:45:43.994Z,5.97
2022-09-15T16:48:11.026Z,2.60
2022-09-15T16:50:40.163Z,4.47
2022-09-15T16:53:20.589Z,4.53
2022-09-15T16:55:56.177Z,2.33
2022-09-15T16:58:23.093Z,4.33
2022-09-15T17:00:54.344Z,3.90
2022-09-15T17:03:23.816Z,3.73
2022-09-15T17:05:52.344Z,5.37
2022-09-15T17:08:21.773Z,4.80
2022-09-15T17:10:49.097Z,3.13
2022-09-15T17:13:18.170Z,2.60
2022-09-15T17:15:45.922Z,3.30
2022-09-15T17:18:15.257Z,3.20
2022-09-15T17:20:45.793Z,3.60
2022-09-15T17:23:27.390Z,3.60
2022-09-15T17:25:58.261Z,3.73
2022-09-15T17:28:27.039Z,1.70
2022-09-15T17:30:58.282Z,5.10
2022-09-15T17:33:25.493Z,3.83
2022-09-15T17:35:52.242Z,4.93
2022-09-15T17:38:20.550Z,5.03
2022-09-15T17:40:48.399Z,5.83
2022-09-15T17:43:17.890Z,2.00
2022-09-15T17:45:44.885Z,3.40
2022-09-15T17:48:11.845Z,4.37
2022-09-15T17:50:39.069Z,4.67
2022-09-15T17:53:14.284Z,2.50
2022-09-15T17:55:41.021Z,3.57
2022-09-15T17:58:08.062Z,5.30
2022-09-15T18:00:37.234Z,4.70
2022-09-15T18:03:14.769Z,3.80
2022-09-15T18:05:41.293Z,2.80
2022-09-15T18:08:09.329Z,7.27
2022-09-15T18:10:36.440Z,11.47
2022-09-15T18:13:05.230Z,13.50
2022-09-15T18:15:34.798Z,11.37
2022-09-15T18:18:04.240Z,7.57
2022-09-15T18:20:33.515Z,6.97
2022-09-15T18:23:00.364Z,9.00
2022-09-15T18:25:33.535Z,5.20
2022-09-15T18:28:01.320Z,4.50
2022-09-15T18:30:29.725Z,6.17
2022-09-15T18:32:56.575Z,6.67
2022-09-15T18:35:23.924Z,4.93
2022-09-15T18:37:57.528Z,3.80
2022-09-15T18:40:24.795Z,6.27
2022-09-15T18:42:51.429Z,8.17
2022-09-15T18:45:18.688Z,2.73
2022-09-15T18:47:49.446Z,5.33
2022-09-15T18:50:17.419Z,7.73
2022-09-15T18:52:44.193Z,3.70
2022-09-15T18:55:15.072Z,4.63
2022-09-15T18:57:42.410Z,3.20
2022-09-15T19:00:15.060Z,4.60
2022-09-15T19:02:41.894Z,4.03
2022-09-15T19:05:15.278Z,4.17
2022-09-15T19:07:46.110Z,6.97
2022-09-15T19:10:14.321Z,5.87
2022-09-15T19:12:40.935Z,3.20
2022-09-15T19:15:11.252Z,3.03
2022-09-15T19:17:39.190Z,4.53
2022-09-15T19:20:08.261Z,5.20
2022-09-15T19:22:35.568Z,4.47
2022-09-15T19:25:02.684Z,4.00
2022-09-15T19:27:29.116Z,3.80
2022-09-15T19:29:55.726Z,2.33
2022-09-15T19:32:22.559Z,3.40
2022-09-15T19:34:49.340Z,6.10
2022-09-15T19:37:20.593Z,3.90
2022-09-15T19:39:48.388Z,3.10
2022-09-15T19:44:47.857Z,3.37
2022-09-15T19:47:14.337Z,2.73
2022-09-15T19:49:40.722Z,2.90
2022-09-15T19:52:07.268Z,2.40
2022-09-15T19:54:34.420Z,3.70
2022-09-15T19:57:01.472Z,6.03
2022-09-15T19:59:31.299Z,5.53
2022-09-15T20:01:58.877Z,2.83
2022-09-15T20:04:25.322Z,7.33
2022-09-15T20:06:51.855Z,6.97
2022-09-15T20:09:18.447Z,7.43
2022-09-15T20:11:44.965Z,2.17
2022-09-15T20:14:11.451Z,6.53
2022-09-15T20:16:37.904Z,5.10
2022-09-15T20:19:04.919Z,3.17
2022-09-15T20:21:51.346Z,4.10
2022-09-15T20:24:18.955Z,5.23
2022-09-15T20:26:45.368Z,3.00
2022-09-15T20:29:12.154Z,4.30
2022-09-15T20:31:38.910Z,6.40
2022-09-15T20:34:05.330Z,2.10
2022-09-15T20:36:33.807Z,7.30
2022-09-15T20:39:03.185Z,3.23
2022-09-15T20:41:31.807Z,4.03
2022-09-15T20:43:58.437Z,6.07
2022-09-15T20:46:25.220Z,6.40
2022-09-15T20:48:51.921Z,6.97
2022-09-15T20:51:24.019Z,3.93
2022-09-15T20:53:53.330Z,3.60
2022-09-15T20:56:23.152Z,7.13
2022-09-15T20:58:49.507Z,4.23
2022-09-15T21:01:22.120Z,5.97
2022-09-15T21:03:48.993Z,4.77
2022-09-15T21:06:17.920Z,2.40
2022-09-15T21:08:45.235Z,3.83
2022-09-15T21:11:11.602Z,5.27
2022-09-15T21:13:40.266Z,4.97
2022-09-15T21:16:09.400Z,5.83
2022-09-15T21:18:39.080Z,2.90
2022-09-15T21:21:10.884Z,3.83
2022-09-15T21:23:42.786Z,2.70
2022-09-15T21:26:25.853Z,3.80
2022-09-15T21:28:53.707Z,6.50
2022-09-15T21:31:23.416Z,4.63
2022-09-15T21:33:51.449Z,3.10
2022-09-15T21:36:22.091Z,6.63
2022-09-15T21:38:50.303Z,6.27
2022-09-15T21:41:20.743Z,4.90
2022-09-15T21:43:48.295Z,3.20
2022-09-15T21:46:19.964Z,4.07
2022-09-15T21:48:47.449Z,3.00
2022-09-15T21:51:15.642Z,2.80
2022-09-15T21:53:42.888Z,4.50
2022-09-15T21:56:11.445Z,2.67
2022-09-15T21:58:42.883Z,2.27
2022-09-15T22:01:14.097Z,4.57
2022-09-15T22:03:44.689Z,5.77
2022-09-15T22:06:12.223Z,4.00
2022-09-15T22:08:40.030Z,5.17
2022-09-15T22:11:07.757Z,7.70
2022-09-15T22:13:36.679Z,3.57
2022-09-15T22:16:05.523Z,3.63
2022-09-15T22:18:32.140Z,5.40
2022-09-15T22:21:11.097Z,4.43
2022-09-15T22:23:38.633Z,3.80
2022-09-15T22:26:07.777Z,3.20
2022-09-15T22:28:34.524Z,3.10
2022-09-15T22:31:03.579Z,3.20
2022-09-15T22:33:30.412Z,5.50
2022-09-15T22:35:59.626Z,3.87
2022-09-15T22:38:28.188Z,2.70
2022-09-15T22:40:55.294Z,7.13
2022-09-15T22:43:22.685Z,4.43
2022-09-15T22:45:49.562Z,3.80
2022-09-15T22:48:16.052Z,4.70
2022-09-15T22:50:45.240Z,5.70
2022-09-15T22:53:12.865Z,1.93
2022-09-15T22:55:39.736Z,2.30
2022-09-15T22:58:06.564Z,5.97
2022-09-15T23:00:33.360Z,3.00
2022-09-15T23:03:00.042Z,3.93
2022-09-15T23:05:26.417Z,6.77
2022-09-15T23:07:52.809Z,4.73
2022-09-15T23:10:19.175Z,6.47
2022-09-15T23:12:45.562Z,4.23
2022-09-15T23:15:12.011Z,2.80
2022-09-15T23:17:39.043Z,2.30
2022-09-15T23:20:05.737Z,2.00
2022-09-15T23:22:32.114Z,6.23
2022-09-15T23:24:58.549Z,4.33
2022-09-15T23:27:24.937Z,2.73
2022-09-15T23:29:51.323Z,4.63
2022-09-15T23:32:17.707Z,1.90
2022-09-15T23:34:44.075Z,6.47
2022-09-15T23:37:10.508Z,5.77
2022-09-15T23:39:36.950Z,3.33
2022-09-15T23:42:03.486Z,10.07
2022-09-15T23:44:29.860Z,4.00
2022-09-15T23:46:56.247Z,2.57
2022-09-15T23:49:22.611Z,6.77
2022-09-15T23:51:49.090Z,3.50
2022-09-15T23:54:15.575Z,3.73
2022-09-15T23:56:43.248Z,4.60
2022-09-15T23:59:09.816Z,3.13
